Time;durP1;ratioP1;P1;durP2;ratioP2;P2;SDS_P1;SDS_P2;PMS_P1;PMS_P2;Temp;Humidity;BMP_temperature;BMP_pressure;BME280_temperature;BME280_humidity;BME280_pressure;Samples;Min_cycle;Max_cycle;Signal;HPM_P1;HPM_P2
2022/06/19 00:02:11;;;;;;;1.60;1.22;;;;;;;20.37;52.79;99334.86;1682599;84;21941;-71
2022/06/19 00:04:39;;;;;;;3.08;1.50;;;;;;;20.33;52.89;99335.05;1683354;84;20900;-71
2022/06/19 00:07:05;;;;;;;2.20;1.90;;;;;;;20.28;52.91;99333.86;1696277;83;21019;-70
2022/06/19 00:09:31;;;;;;;1.67;1.15;;;;;;;20.26;53.02;99335.16;1683286;84;20939;-70
2022/06/19 00:12:00;;;;;;;2.15;1.32;;;;;;;20.23;53.01;99326.17;1682684;83;21091;-71
2022/06/19 00:14:26;;;;;;;2.17;1.40;;;;;;;20.20;52.95;99330.17;1683064;83;21288;-72
2022/06/19 00:16:54;;;;;;;1.50;1.40;;;;;;;20.18;52.94;99324.67;1682281;84;20998;-71
2022/06/19 00:19:20;;;;;;;1.20;1.10;;;;;;;20.16;53.01;99328.98;1683169;84;20960;-71
2022/06/19 00:21:47;;;;;;;2.42;1.27;;;;;;;20.13;53.16;99325.91;1683357;84;21496;-71
2022/06/19 00:24:14;;;;;;;1.55;1.10;;;;;;;20.11;53.27;99323.98;1679200;84;21029;-70
2022/06/19 00:26:42;;;;;;;1.87;1.02;;;;;;;20.08;53.38;99327.15;1669010;85;20952;-71
2022/06/19 00:29:09;;;;;;;1.37;1.27;;;;;;;20.05;53.45;99321.69;1669237;85;20956;-71
2022/06/19 00:31:36;;;;;;;3.17;1.55;;;;;;;20.04;53.49;99323.29;1669820;85;21505;-71
2022/06/19 00:34:03;;;;;;;2.92;1.47;;;;;;;20.01;53.57;99322.41;1669611;86;21454;-71
2022/06/19 00:36:30;;;;;;;2.33;1.10;;;;;;;19.97;53.58;99321.25;1669347;86;20935;-71
2022/06/19 00:38:57;;;;;;;2.12;1.10;;;;;;;19.94;53.57;99324.41;1669753;85;21661;-71
2022/06/19 00:41:24;;;;;;;1.22;1.12;;;;;;;19.91;53.64;99331.09;1670099;86;21039;-71
2022/06/19 00:44:07;;;;;;;1.77;1.40;;;;;;;19.89;53.72;99326.98;1661444;86;20968;-71
2022/06/19 00:46:45;;;;;;;1.70;1.52;;;;;;;19.88;53.79;99326.16;1669070;84;21608;-70
2022/06/19 00:49:23;;;;;;;2.00;1.37;;;;;;;19.88;53.87;99325.33;1669790;86;20952;-71
2022/06/19 00:51:58;;;;;;;2.72;1.32;;;;;;;19.88;53.90;99323.46;1667140;86;21498;-71
2022/06/19 00:54:24;;;;;;;1.52;1.17;;;;;;;19.91;53.91;99320.82;1669168;86;21052;-70
2022/06/19 00:56:51;;;;;;;1.67;1.20;;;;;;;19.94;53.91;99323.05;1669684;85;20912;-71
2022/06/19 00:59:18;;;;;;;1.22;1.10;;;;;;;19.97;53.96;99315.29;1669214;85;21005;-71
2022/06/19 01:01:45;;;;;;;3.05;1.32;;;;;;;19.99;53.96;99315.08;1669717;86;21583;-71
2022/06/19 01:04:28;;;;;;;1.60;1.50;;;;;;;19.99;53.98;99311.02;1669379;86;21506;-71
2022/06/19 01:06:55;;;;;;;2.22;1.55;;;;;;;20.01;53.98;99317.00;1669777;86;20927;-70
2022/06/19 01:09:23;;;;;;;3.17;1.52;;;;;;;19.99;54.01;99321.30;1644560;86;20991;-70
2022/06/19 01:11:50;;;;;;;1.75;1.65;;;;;;;19.96;54.11;99320.94;1670881;84;21435;-70
2022/06/19 01:14:21;;;;;;;2.05;1.50;;;;;;;19.92;54.15;99316.52;1668113;84;21018;-71
2022/06/19 01:16:48;;;;;;;3.52;1.30;;;;;;;19.91;54.18;99317.59;1661234;86;21174;-71
2022/06/19 01:19:26;;;;;;;2.12;1.47;;;;;;;19.89;54.26;99309.44;1659310;86;21557;-71
2022/06/19 01:22:24;;;;;;;1.45;1.12;;;;;;;19.89;54.41;99308.92;1668977;85;21329;-71
2022/06/19 01:25:18;;;;;;;1.50;1.40;;;;;;;19.87;54.51;99302.08;1668899;85;21110;-70
2022/06/19 01:30:37;;;;;;;1.50;1.30;;;;;;;19.79;54.74;99310.00;1669724;86;21876;-71
2022/06/19 01:33:06;;;;;;;1.62;1.35;;;;;;;19.77;54.75;99305.89;1669790;85;20948;-71
2022/06/19 01:35:34;;;;;;;2.50;1.25;;;;;;;19.75;54.82;99302.61;1667814;86;21058;-71
2022/06/19 01:38:08;;;;;;;1.47;1.37;;;;;;;19.73;54.88;99307.70;1669791;85;21008;-72
2022/06/19 01:40:35;;;;;;;3.55;1.70;;;;;;;19.73;54.90;99303.66;1668806;86;21020;-71
2022/06/19 01:43:03;;;;;;;2.85;1.40;;;;;;;19.72;54.95;99309.30;1644887;86;21136;-71
2022/06/19 01:45:31;;;;;;;1.50;1.40;;;;;;;19.68;55.03;99302.19;1669895;85;21086;-71
2022/06/19 01:47:57;;;;;;;2.05;1.65;;;;;;;19.65;55.14;99299.16;1668619;86;21017;-71
2022/06/19 01:50:26;;;;;;;1.62;1.52;;;;;;;19.59;55.32;99302.77;1648158;86;21046;-71
2022/06/19 01:52:58;;;;;;;1.87;1.65;;;;;;;19.54;55.47;99301.30;1626860;88;21496;-71
2022/06/19 01:55:28;;;;;;;1.70;1.35;;;;;;;19.50;55.67;99304.97;1621647;88;21207;-71
2022/06/19 01:57:53;;;;;;;7.33;1.72;;;;;;;19.46;55.86;99301.63;1687181;83;20950;-71
2022/06/19 02:00:23;;;;;;;2.50;1.67;;;;;;;19.39;56.01;99300.41;1585637;89;21040;-71
2022/06/19 02:03:16;;;;;;;2.22;1.72;;;;;;;19.35;56.23;99292.42;1675467;85;21006;-71
2022/06/19 02:05:43;;;;;;;2.00;1.72;;;;;;;19.31;56.44;99289.91;1567189;90;21537;-71
2022/06/19 02:08:11;;;;;;;1.70;1.60;;;;;;;19.26;56.63;99289.78;1574182;89;20997;-71
2022/06/19 02:10:40;;;;;;;3.90;1.98;;;;;;;19.22;56.83;99275.09;1575802;88;21454;-71
2022/06/19 02:13:08;;;;;;;3.25;1.90;;;;;;;19.19;56.96;99283.64;1686873;85;20967;-72
2022/06/19 02:15:37;;;;;;;4.12;3.22;;;;;;;19.18;57.06;99283.88;1639958;86;21015;-71
2022/06/19 02:18:05;;;;;;;6.47;3.60;;;;;;;19.15;57.24;99283.82;1634724;86;21010;-72
2022/06/19 02:20:32;;;;;;;4.72;2.95;;;;;;;19.13;57.34;99285.94;1663226;85;21652;-71
2022/06/19 02:23:01;;;;;;;5.53;2.83;;;;;;;19.14;57.44;99282.16;1670090;85;20940;-72
2022/06/19 02:25:28;;;;;;;6.87;2.47;;;;;;;19.13;57.54;99281.89;1676779;84;21057;-72
2022/06/19 02:27:57;;;;;;;2.75;2.20;;;;;;;19.10;57.67;99280.99;1686064;85;21006;-72
2022/06/19 02:30:23;;;;;;;2.33;2.12;;;;;;;19.09;57.77;99276.64;1688602;85;20935;-72
2022/06/19 02:32:50;;;;;;;3.05;2.35;;;;;;;19.08;57.82;99281.75;1680279;85;21237;-71
2022/06/19 02:35:21;;;;;;;2.35;2.15;;;;;;;19.05;57.92;99268.73;1689040;84;21520;-72
2022/06/19 02:37:51;;;;;;;3.08;1.87;;;;;;;19.04;57.95;99271.12;1688531;85;20954;-72
2022/06/19 02:40:39;;;;;;;4.40;1.92;;;;;;;19.03;58.00;99273.53;1682027;85;20900;-72
2022/06/19 02:43:17;;;;;;;3.25;1.95;;;;;;;19.01;58.07;99274.27;1664676;85;20982;-72
2022/06/19 02:45:44;;;;;;;4.42;2.15;;;;;;;19.02;58.09;99278.63;1689176;85;21316;-71
2022/06/19 02:48:29;;;;;;;3.15;2.20;;;;;;;19.02;58.01;99278.09;1688207;83;21074;-71
2022/06/19 02:50:58;;;;;;;1.90;1.70;;;;;;;19.05;58.00;99276.81;1688949;84;21477;-72
2022/06/19 02:53:25;;;;;;;5.17;1.90;;;;;;;19.06;57.96;99271.70;1688024;85;20966;-72
2022/06/19 02:55:51;;;;;;;2.17;1.90;;;;;;;19.09;57.86;99276.64;1688866;85;20911;-72
2022/06/19 02:58:19;;;;;;;2.02;1.60;;;;;;;19.11;57.81;99273.18;1688625;85;21496;-72
2022/06/19 03:00:48;;;;;;;3.02;2.27;;;;;;;19.15;57.68;99277.08;1688060;84;21002;-72
2022/06/19 03:03:36;;;;;;;2.02;1.82;;;;;;;19.19;57.45;99286.89;1688795;84;21014;-73
2022/06/19 03:06:04;;;;;;;2.30;1.77;;;;;;;19.24;57.21;99285.67;1689209;85;28618;-72
2022/06/19 03:08:31;;;;;;;1.92;1.82;;;;;;;19.29;57.05;99293.38;1688637;85;20891;-73
2022/06/19 03:10:58;;;;;;;2.00;1.80;;;;;;;19.36;56.76;99296.78;1688069;84;21249;-71
2022/06/19 03:13:25;;;;;;;2.45;1.70;;;;;;;19.45;56.51;99296.76;1687969;85;20950;-71
2022/06/19 03:16:06;;;;;;;3.72;2.00;;;;;;;19.54;56.15;99294.55;1688920;85;20983;-72
2022/06/19 03:18:35;;;;;;;1.85;1.60;;;;;;;19.62;55.75;99291.52;1688180;85;21356;-72
2022/06/19 03:21:01;;;;;;;3.08;1.92;;;;;;;19.73;55.55;99296.63;1697601;83;20928;-72
2022/06/19 03:23:28;;;;;;;2.12;1.87;;;;;;;19.84;55.29;99292.58;1687956;85;21847;-72
2022/06/19 03:25:54;;;;;;;1.92;1.70;;;;;;;19.96;54.94;99292.07;1687364;84;21531;-72
2022/06/19 03:28:20;;;;;;;3.92;2.10;;;;;;;20.10;54.53;99295.36;1688311;85;20983;-71
2022/06/19 03:30:53;;;;;;;4.10;2.25;;;;;;;20.23;54.17;99300.52;1675769;84;21059;-72
2022/06/19 03:33:20;;;;;;;3.37;2.00;;;;;;;20.40;53.76;99308.20;1688351;85;21052;-72
2022/06/19 03:35:46;;;;;;;2.30;2.10;;;;;;;20.55;53.30;99299.58;1688729;85;21261;-73
2022/06/19 03:38:13;;;;;;;4.45;1.80;;;;;;;20.73;52.82;99302.11;1688465;85;21022;-73
2022/06/19 03:40:39;;;;;;;2.72;2.40;;;;;;;20.91;52.35;99301.41;1688309;85;20958;-72
2022/06/19 03:43:05;;;;;;;2.90;1.75;;;;;;;21.24;51.58;99301.25;1687975;85;20971;-72
2022/06/19 03:45:33;;;;;;;2.87;1.92;;;;;;;21.61;50.56;99297.56;1688849;85;20911;-73
2022/06/19 03:47:59;;;;;;;3.72;2.10;;;;;;;21.94;49.53;99302.45;1688736;85;21668;-72
2022/06/19 03:50:27;;;;;;;1.80;1.70;;;;;;;22.26;48.64;99301.30;1688000;85;20916;-72
2022/06/19 03:52:54;;;;;;;2.67;1.80;;;;;;;22.60;47.79;99296.04;1688171;85;21110;-73
2022/06/19 03:55:20;;;;;;;2.17;1.60;;;;;;;22.96;46.88;99299.22;1688742;85;21058;-72
2022/06/19 03:57:46;;;;;;;3.65;1.40;;;;;;;23.29;45.99;99292.23;1688411;85;21058;-72
2022/06/19 04:00:16;;;;;;;1.90;1.70;;;;;;;23.61;45.08;99291.75;1688477;84;22202;-73
2022/06/19 04:02:44;;;;;;;1.87;1.27;;;;;;;23.92;44.28;99293.62;1688884;85;20907;-72
2022/06/19 04:05:12;;;;;;;3.72;1.60;;;;;;;24.24;43.54;99283.25;1688235;85;20953;-73
2022/06/19 04:07:46;;;;;;;2.20;1.70;;;;;;;24.56;42.64;99292.91;1688888;85;21003;-73
2022/06/19 04:10:16;;;;;;;2.02;1.82;;;;;;;24.86;41.83;99283.27;1688587;85;21070;-72
2022/06/19 04:12:43;;;;;;;3.08;1.80;;;;;;;25.17;41.17;99283.62;1688683;85;21280;-72
2022/06/19 04:15:12;;;;;;;4.78;1.60;;;;;;;25.46;40.47;99282.59;1687913;85;20943;-73
2022/06/19 04:17:39;;;;;;;1.70;1.57;;;;;;;25.77;39.85;99284.23;1688823;85;21002;-73
2022/06/19 04:20:07;;;;;;;2.37;1.70;;;;;;;26.09;39.34;99286.65;1688373;85;21540;-72
2022/06/19 04:22:35;;;;;;;2.17;1.72;;;;;;;26.46;38.65;99291.23;1688630;85;21536;-73
2022/06/19 04:25:03;;;;;;;2.10;1.60;;;;;;;26.89;37.80;99291.87;1689763;83;21256;-72
2022/06/19 04:27:31;;;;;;;2.50;1.40;;;;;;;27.31;37.03;99293.27;1668621;84;20950;-72
2022/06/19 04:29:58;;;;;;;1.47;1.37;;;;;;;27.70;36.27;99293.27;1669774;85;21032;-73
2022/06/19 04:32:24;;;;;;;3.27;1.47;;;;;;;28.03;35.55;99294.63;1669819;86;21580;-72
2022/06/19 04:34:50;;;;;;;2.87;1.98;;;;;;;28.40;35.15;99300.81;1669757;86;20904;-72
2022/06/19 04:37:17;;;;;;;3.15;1.37;;;;;;;28.83;34.50;99294.04;1668617;85;21617;-73
2022/06/19 04:39:44;;;;;;;1.72;1.60;;;;;;;29.13;33.68;99291.70;1669891;86;21066;-73
2022/06/19 04:42:11;;;;;;;2.42;1.32;;;;;;;29.44;33.28;99287.14;1657972;86;20954;-73
2022/06/19 04:44:37;;;;;;;2.75;1.72;;;;;;;29.82;32.80;99291.50;1669718;84;20987;-72
2022/06/19 04:47:05;;;;;;;2.05;1.50;;;;;;;30.17;32.33;99290.03;1669379;85;20998;-73
2022/06/19 04:49:31;;;;;;;2.95;1.62;;;;;;;30.55;31.59;99292.35;1669819;85;21164;-73
2022/06/19 04:51:58;;;;;;;1.40;1.30;;;;;;;30.85;31.05;99297.75;1668866;85;21512;-73
2022/06/19 04:54:25;;;;;;;2.77;1.55;;;;;;;31.07;30.72;99290.99;1669219;86;21022;-72
2022/06/19 04:56:51;;;;;;;1.52;1.40;;;;;;;31.27;30.36;99292.45;1669404;86;20931;-72
2022/06/19 04:59:18;;;;;;;1.42;1.32;;;;;;;31.55;29.97;99287.69;1669029;85;20959;-72
2022/06/19 05:01:46;;;;;;;2.65;1.55;;;;;;;31.84;29.48;99279.80;1669565;86;21874;-72
2022/06/19 05:04:12;;;;;;;1.37;1.07;;;;;;;32.05;29.19;99271.86;1669465;85;21481;-73
2022/06/19 05:06:39;;;;;;;1.40;1.30;;;;;;;32.30;28.74;99278.07;1670211;85;21489;-72
2022/06/19 05:09:05;;;;;;;2.10;1.40;;;;;;;32.57;28.31;99275.11;1669619;86;21537;-73
2022/06/19 05:11:33;;;;;;;1.60;1.42;;;;;;;32.77;27.98;99275.88;1669183;85;20947;-73
2022/06/19 05:14:00;;;;;;;1.25;1.10;;;;;;;33.02;27.75;99266.61;1669064;84;21253;-72
2022/06/19 05:16:27;;;;;;;2.10;1.35;;;;;;;33.23;27.35;99262.13;1681340;84;20955;-73
2022/06/19 05:18:54;;;;;;;1.05;0.95;;;;;;;33.44;27.11;99258.40;1673894;84;20947;-71
2022/06/19 05:21:23;;;;;;;1.47;1.27;;;;;;;33.67;26.84;99248.01;1670094;86;21487;-72
2022/06/19 05:23:51;;;;;;;2.10;1.35;;;;;;;34.00;26.49;99245.48;1670133;85;20899;-72
2022/06/19 05:26:22;;;;;;;1.35;1.17;;;;;;;34.34;26.06;99245.38;1672569;85;21148;-73
2022/06/19 05:28:50;;;;;;;1.72;1.02;;;;;;;34.74;25.60;99249.98;1683557;85;21047;-73
2022/06/19 05:31:16;;;;;;;1.15;1.05;;;;;;;34.99;24.86;99243.46;1677351;83;21044;-73
2022/06/19 05:33:43;;;;;;;2.42;1.20;;;;;;;35.09;24.79;99246.45;1680758;83;21426;-73
2022/06/19 05:36:10;;;;;;;1.27;1.17;;;;;;;35.15;24.54;99237.60;1681934;84;21115;-72
2022/06/19 05:38:38;;;;;;;1.87;1.35;;;;;;;35.25;24.53;99245.48;1682917;84;20998;-72
2022/06/19 05:41:04;;;;;;;1.27;1.17;;;;;;;35.52;24.17;99236.38;1683284;83;21425;-71
2022/06/19 05:43:33;;;;;;;2.10;1.02;;;;;;;35.62;23.85;99235.41;1664574;85;20904;-71
2022/06/19 05:46:03;;;;;;;1.32;1.00;;;;;;;35.71;23.88;99238.09;1682273;84;21010;-72
2022/06/19 05:48:30;;;;;;;1.77;1.07;;;;;;;35.90;23.66;99247.47;1683282;83;21442;-70
2022/06/19 05:51:05;;;;;;;1.75;1.20;;;;;;;36.16;23.46;99241.69;1682304;84;21255;-70
2022/06/19 05:53:35;;;;;;;2.52;1.15;;;;;;;36.40;23.25;99238.09;1681345;83;21446;-69
2022/06/19 05:56:02;;;;;;;1.17;0.98;;;;;;;36.62;23.14;99241.83;1683730;84;20901;-69
2022/06/19 05:58:30;;;;;;;1.12;0.88;;;;;;;36.93;22.95;99239.23;1683227;84;21521;-71
2022/06/19 06:00:56;;;;;;;1.37;1.07;;;;;;;37.29;22.51;99232.80;1683394;84;21023;-70
2022/06/19 06:03:23;;;;;;;1.30;1.20;;;;;;;37.68;21.85;99230.57;1683701;85;21893;-69
2022/06/19 06:05:51;;;;;;;3.27;0.98;;;;;;;37.95;21.75;99230.33;1683801;83;20932;-68
2022/06/19 06:08:18;;;;;;;1.85;1.00;;;;;;;38.29;21.49;99228.81;1683510;83;20955;-69
2022/06/19 06:10:46;;;;;;;2.00;1.30;;;;;;;38.61;21.06;99229.03;1683158;84;20983;-74
2022/06/19 06:13:13;;;;;;;2.98;1.07;;;;;;;38.76;20.52;99227.41;1682949;85;21418;-75
2022/06/19 06:15:41;;;;;;;2.87;1.17;;;;;;;38.78;20.51;99222.28;1682164;84;21812;-73
2022/06/19 06:18:08;;;;;;;1.75;1.20;;;;;;;38.94;20.80;99227.80;1682663;84;20915;-74
2022/06/19 06:20:36;;;;;;;3.00;1.00;;;;;;;39.36;20.38;99227.34;1681848;84;21463;-69
2022/06/19 06:23:03;;;;;;;1.20;1.10;;;;;;;39.75;19.76;99227.55;1683133;84;20960;-69
2022/06/19 06:25:29;;;;;;;1.02;1.02;;;;;;;39.91;19.24;99221.28;1682167;84;20980;-73
2022/06/19 06:27:57;;;;;;;1.55;1.32;;;;;;;39.79;18.98;99212.30;1681869;84;21014;-70
2022/06/19 06:30:25;;;;;;;2.00;1.25;;;;;;;39.56;19.11;99210.02;1681944;84;21007;-72
2022/06/19 06:32:52;;;;;;;3.20;1.30;;;;;;;39.52;19.07;99212.76;1640895;85;21449;-68
2022/06/19 06:35:19;;;;;;;1.55;1.20;;;;;;;39.61;19.42;99218.88;1629922;87;21522;-68
2022/06/19 06:37:47;;;;;;;3.05;1.35;;;;;;;39.90;19.24;99211.30;1637346;86;20992;-68
2022/06/19 06:40:15;;;;;;;1.25;0.98;;;;;;;40.19;18.76;99209.84;1642710;86;21171;-66
2022/06/19 06:42:41;;;;;;;2.00;0.90;;;;;;;40.35;18.27;99204.93;1644102;86;21456;-67
2022/06/19 06:45:12;;;;;;;1.35;1.00;;;;;;;40.22;18.40;99223.61;1632412;86;21090;-68
2022/06/19 06:47:39;;;;;;;3.08;1.37;;;;;;;40.24;18.15;99228.21;1683673;84;21058;-69
2022/06/19 06:50:07;;;;;;;1.82;1.20;;;;;;;40.20;18.13;99230.16;1683057;84;20985;-72
2022/06/19 06:52:33;;;;;;;1.25;0.90;;;;;;;40.29;18.65;99225.11;1683722;85;21744;-73
2022/06/19 06:54:59;;;;;;;5.05;1.32;;;;;;;40.31;18.39;99210.23;1683601;85;21441;-70
2022/06/19 06:57:26;;;;;;;1.50;1.30;;;;;;;40.32;18.02;99214.03;1683207;85;20991;-69
2022/06/19 06:59:53;;;;;;;1.00;0.93;;;;;;;40.32;18.17;99220.19;1682209;84;20921;-69
2022/06/19 07:02:19;;;;;;;1.30;0.98;;;;;;;40.40;17.98;99212.16;1682295;84;21095;-70
2022/06/19 07:04:45;;;;;;;2.42;1.00;;;;;;;40.55;18.00;99211.22;1682211;84;21247;-68
2022/06/19 07:07:13;;;;;;;2.12;1.02;;;;;;;40.85;17.76;99214.06;1682000;84;21088;-70
2022/06/19 07:09:40;;;;;;;1.60;1.00;;;;;;;40.98;17.28;99203.72;1681004;84;21004;-68
2022/06/19 07:12:09;;;;;;;2.08;1.10;;;;;;;40.92;16.77;99205.81;1657639;85;21012;-68
2022/06/19 07:14:36;;;;;;;1.15;1.00;;;;;;;40.85;16.75;99200.11;1639886;85;21016;-71
2022/06/19 07:17:04;;;;;;;1.20;1.10;;;;;;;40.92;16.69;99196.05;1681632;84;21835;-70
2022/06/19 07:19:31;;;;;;;1.87;1.00;;;;;;;41.17;16.89;99201.37;1682186;84;21072;-67
2022/06/19 07:21:58;;;;;;;2.67;1.27;;;;;;;41.54;16.30;99205.00;1681168;84;21499;-69
2022/06/19 07:24:25;;;;;;;0.80;0.80;;;;;;;41.42;16.26;99193.31;1681596;84;21066;-68
2022/06/19 07:26:52;;;;;;;2.08;1.00;;;;;;;41.38;16.37;99203.02;1676885;84;21150;-68
2022/06/19 07:29:19;;;;;;;1.30;1.00;;;;;;;41.60;16.33;99199.88;1668275;86;22174;-69
2022/06/19 07:31:47;;;;;;;1.37;0.80;;;;;;;41.97;16.24;99192.89;1668197;86;21028;-66
2022/06/19 07:34:13;;;;;;;2.45;0.95;;;;;;;42.39;16.06;99199.67;1668265;86;21012;-69
2022/06/19 07:36:40;;;;;;;1.80;1.27;;;;;;;42.69;15.92;99203.67;1659894;86;21119;-68
2022/06/19 07:39:07;;;;;;;1.25;0.80;;;;;;;42.91;15.60;99194.81;1669502;85;21067;-67
2022/06/19 07:41:33;;;;;;;1.00;0.98;;;;;;;42.98;15.71;99192.06;1669180;85;21517;-67
2022/06/19 07:43:59;;;;;;;1.45;1.10;;;;;;;42.87;15.08;99191.98;1669779;85;21570;-68
2022/06/19 07:46:27;;;;;;;2.10;1.10;;;;;;;42.42;15.06;99179.30;1669266;86;21029;-66
2022/06/19 07:51:38;;;;;;;1.20;1.10;;;;;;;42.06;15.57;99189.97;1687328;85;21010;-68
2022/06/19 07:54:05;;;;;;;1.00;0.90;;;;;;;42.03;15.57;99197.73;1627936;88;21235;-68
2022/06/19 07:56:33;;;;;;;1.50;1.10;;;;;;;42.05;15.38;99187.58;1687170;85;20892;-69
2022/06/19 07:59:02;;;;;;;1.32;1.07;;;;;;;42.01;15.06;99183.34;1592595;86;20963;-68
2022/06/19 08:01:29;;;;;;;1.07;1.00;;;;;;;41.96;15.34;99178.70;1640205;86;21032;-69
2022/06/19 08:03:55;;;;;;;1.35;1.05;;;;;;;42.05;15.35;99178.61;1626203;86;21556;-69
2022/06/19 08:06:22;;;;;;;3.92;0.85;;;;;;;42.47;15.04;99178.16;1687561;85;21934;-70
2022/06/19 08:08:49;;;;;;;2.37;1.02;;;;;;;42.94;15.00;99175.88;1627870;88;20959;-69
2022/06/19 08:11:16;;;;;;;1.60;1.00;;;;;;;43.29;15.06;99169.59;1686780;84;20927;-70
2022/06/19 08:13:45;;;;;;;1.95;1.00;;;;;;;43.82;14.73;99169.16;1655713;86;20995;-70
2022/06/19 08:16:12;;;;;;;1.20;1.10;;;;;;;44.29;13.93;99167.98;1627216;87;20971;-73
2022/06/19 08:18:40;;;;;;;1.60;1.10;;;;;;;44.46;14.00;99176.14;1687533;83;21497;-69
2022/06/19 08:21:06;;;;;;;1.52;1.15;;;;;;;44.73;13.66;99159.90;1629187;86;20975;-70
2022/06/19 08:23:34;;;;;;;1.05;0.98;;;;;;;44.86;13.59;99176.27;1686809;85;21452;-73
2022/06/19 08:26:02;;;;;;;1.72;1.10;;;;;;;44.81;13.97;99170.48;1627458;87;20984;-77
2022/06/19 08:31:05;;;;;;;5.42;1.02;;;;;;;45.26;13.57;99170.16;1630709;86;21240;-72
2022/06/19 08:33:32;;;;;;;1.57;1.40;;;;;;;45.15;13.63;99165.16;1632371;86;20911;-71
2022/06/19 08:36:03;;;;;;;1.42;1.32;;;;;;;45.23;13.71;99170.34;1687633;85;21002;-70
2022/06/19 08:38:33;;;;;;;1.15;1.05;;;;;;;45.38;13.67;99175.30;1627825;87;20955;-68
2022/06/19 08:41:32;;;;;;;2.52;1.10;;;;;;;45.61;13.11;99168.52;1687214;85;20987;-72
2022/06/19 08:44:38;;;;;;;0.95;0.95;;;;;;;45.46;13.24;99171.84;1617568;86;21099;-72
2022/06/19 08:47:25;;;;;;;2.33;1.03;;;;;;;45.63;13.16;99179.39;1611574;88;21416;-73
2022/06/19 08:50:21;;;;;;;1.07;0.98;;;;;;;45.65;12.81;99183.39;1627920;85;20872;-69
2022/06/19 08:53:18;;;;;;;1.52;1.10;;;;;;;45.56;13.11;99186.41;1624448;86;21023;-68
2022/06/19 08:55:59;;;;;;;1.92;1.07;;;;;;;45.63;12.77;99182.98;1685934;85;20986;-69
2022/06/19 08:58:37;;;;;;;2.67;1.00;;;;;;;45.36;13.02;99177.13;1627270;88;21506;-71
2022/06/19 09:01:37;;;;;;;1.22;1.10;;;;;;;45.18;13.02;99180.59;1686567;85;21019;-71
2022/06/19 09:07:13;;;;;;;1.00;0.90;;;;;;;45.38;13.36;99183.12;1628704;87;21014;-69
2022/06/19 09:10:15;;;;;;;1.15;1.02;;;;;;;45.42;13.44;99182.30;1675011;85;21058;-69
2022/06/19 09:13:05;;;;;;;1.07;0.90;;;;;;;45.55;13.14;99172.20;1567659;86;21325;-66
2022/06/19 09:15:45;;;;;;;1.37;1.27;;;;;;;45.66;13.26;99185.56;1633602;86;21084;-68
2022/06/19 09:18:38;;;;;;;1.10;1.00;;;;;;;45.90;12.94;99176.16;1637481;86;20932;-67
2022/06/19 09:21:20;;;;;;;1.30;1.20;;;;;;;45.70;13.21;99176.53;1629610;86;21043;-66
2022/06/19 09:24:14;;;;;;;2.15;0.98;;;;;;;45.49;13.26;99169.61;1685855;84;21573;-71
2022/06/19 09:26:56;;;;;;;2.87;1.10;;;;;;;45.59;13.21;99175.77;1667710;85;21222;-68
2022/06/19 09:29:33;;;;;;;1.67;1.10;;;;;;;45.90;13.03;99184.00;1669141;85;21562;-69
2022/06/19 09:32:20;;;;;;;1.65;1.10;;;;;;;46.50;12.67;99180.70;1667766;85;21469;-68
2022/06/19 09:34:58;;;;;;;2.65;1.02;;;;;;;46.87;12.15;99182.73;1668064;85;21000;-68
2022/06/19 09:37:54;;;;;;;1.37;1.15;;;;;;;46.72;12.17;99182.67;1668402;86;21084;-66
2022/06/19 09:40:38;;;;;;;1.55;1.10;;;;;;;46.63;12.52;99187.19;1667867;86;21267;-69
2022/06/19 09:43:15;;;;;;;1.50;1.17;;;;;;;46.67;12.43;99179.52;1650330;86;21153;-66
2022/06/19 09:45:49;;;;;;;2.05;1.30;;;;;;;46.66;12.15;99181.53;1669723;85;21091;-70
2022/06/19 09:48:36;;;;;;;3.05;1.20;;;;;;;46.30;12.36;99176.86;1668815;86;21108;-68
2022/06/19 09:51:32;;;;;;;3.17;1.30;;;;;;;45.79;12.77;99170.63;1668833;85;20943;-69
2022/06/19 09:54:18;;;;;;;5.03;1.20;;;;;;;45.56;13.24;99161.94;1669141;86;21107;-66
2022/06/19 09:57:21;;;;;;;2.87;1.35;;;;;;;45.54;13.36;99172.79;1664293;86;21094;-68
2022/06/19 10:00:02;;;;;;;1.50;1.12;;;;;;;45.62;13.59;99167.36;1649754;86;21014;-66
2022/06/19 10:02:57;;;;;;;1.82;1.32;;;;;;;45.37;13.40;99163.85;1667672;86;21019;-69
2022/06/19 10:05:44;;;;;;;4.50;1.40;;;;;;;44.77;13.70;99166.88;1669496;86;21129;-68
2022/06/19 10:08:40;;;;;;;1.82;1.10;;;;;;;43.83;14.39;99166.55;1634009;86;21190;-70
2022/06/19 10:11:16;;;;;;;2.92;1.65;;;;;;;42.61;15.65;99162.87;1672365;84;20951;-67
2022/06/19 10:14:06;;;;;;;1.42;1.30;;;;;;;41.30;16.96;99174.02;1665221;84;20964;-68
2022/06/19 10:16:50;;;;;;;3.30;1.62;;;;;;;40.06;17.53;99165.25;1669227;86;20920;-66
2022/06/19 10:19:21;;;;;;;1.17;1.05;;;;;;;38.75;19.02;99169.61;1671823;84;21079;-65
2022/06/19 10:22:15;;;;;;;1.30;1.20;;;;;;;37.90;20.20;99163.16;1659481;86;21256;-66
2022/06/19 10:25:01;;;;;;;1.92;1.30;;;;;;;37.21;20.99;99177.51;1654553;86;21576;-65
2022/06/19 10:27:42;;;;;;;3.22;1.40;;;;;;;36.35;21.93;99180.17;1670661;84;20932;-66
2022/06/19 10:30:35;;;;;;;2.27;1.30;;;;;;;35.61;22.68;99167.98;1692449;83;20927;-67
2022/06/19 10:33:38;;;;;;;2.37;1.20;;;;;;;35.17;23.49;99163.42;1666246;83;21115;-69
2022/06/19 10:37:00;;;;;;;1.62;1.20;;;;;;;34.80;23.75;99163.01;1683123;85;21165;-66
2022/06/19 10:39:47;;;;;;;2.92;1.20;;;;;;;34.49;24.15;99161.17;1683017;83;20998;-69
2022/06/19 10:42:28;;;;;;;3.20;1.27;;;;;;;34.12;24.64;99168.37;1647776;85;20927;-67
2022/06/19 10:45:24;;;;;;;1.87;1.22;;;;;;;33.84;25.26;99163.03;1680084;85;21010;-66
2022/06/19 10:48:08;;;;;;;1.70;1.20;;;;;;;33.60;25.78;99164.97;1684031;85;20943;-65
2022/06/19 10:50:43;;;;;;;2.85;1.30;;;;;;;33.40;25.58;99153.22;1683688;85;21170;-69
2022/06/19 10:53:53;;;;;;;1.65;0.95;;;;;;;33.19;25.87;99155.06;1683839;83;20944;-64
2022/06/19 10:56:27;;;;;;;3.40;1.12;;;;;;;32.98;26.39;99158.43;1683871;85;21429;-65
2022/06/19 10:58:53;;;;;;;1.98;1.32;;;;;;;32.59;26.73;99153.06;1683500;85;21015;-69
2022/06/19 11:04:08;;;;;;;1.70;1.37;;;;;;;32.52;27.74;99143.11;1639428;86;21168;-68
2022/06/19 11:06:57;;;;;;;4.50;1.20;;;;;;;32.56;27.86;99134.46;1680907;83;20943;-66
2022/06/19 11:09:32;;;;;;;1.77;1.22;;;;;;;32.63;27.88;99140.85;1668045;85;20951;-66
2022/06/19 11:12:39;;;;;;;1.20;1.00;;;;;;;32.59;27.03;99134.39;1679455;85;20991;-67
2022/06/19 11:15:19;;;;;;;3.10;1.30;;;;;;;32.50;27.10;99139.84;1683175;85;21046;-65
2022/06/19 11:17:46;;;;;;;3.40;1.17;;;;;;;32.41;27.46;99127.20;1663193;85;21183;-69
2022/06/19 11:20:28;;;;;;;3.20;1.20;;;;;;;32.33;27.52;99127.41;1681452;84;20983;-69
2022/06/19 11:23:19;;;;;;;1.82;1.10;;;;;;;32.24;27.37;99125.22;1667096;84;21142;-65
2022/06/19 11:26:00;;;;;;;1.60;0.98;;;;;;;32.13;27.60;99131.59;1681956;84;20984;-67
2022/06/19 11:28:56;;;;;;;4.15;1.15;;;;;;;32.07;27.44;99136.20;1679190;84;21561;-67
2022/06/19 11:31:30;;;;;;;3.25;1.27;;;;;;;31.99;27.79;99124.57;1667989;84;22184;-64
2022/06/19 11:34:43;;;;;;;2.72;1.10;;;;;;;31.98;27.94;99125.69;1675747;84;21075;-65
2022/06/19 11:36:37;;;;;;;2.15;1.02;;;;;;;31.95;28.03;99125.76;1688838;83;21050;-69
2022/06/19 11:39:28;;;;;;;2.35;1.30;;;;;;;31.91;28.18;99115.72;1681204;84;21121;-67
2022/06/19 11:41:54;;;;;;;1.20;1.10;;;;;;;31.86;28.48;99106.24;1666939;84;21039;-67
2022/06/19 11:44:21;;;;;;;1.87;1.20;;;;;;;31.84;28.31;99116.73;1689570;83;21151;-67
2022/06/19 11:46:51;;;;;;;2.17;1.07;;;;;;;31.78;28.00;99117.46;1681587;83;20931;-64
2022/06/19 11:49:29;;;;;;;2.77;1.17;;;;;;;31.70;28.15;99119.02;1681111;83;20961;-64
2022/06/19 11:52:01;;;;;;;3.52;1.17;;;;;;;31.63;28.08;99112.36;1699175;83;21022;-65
2022/06/19 11:54:32;;;;;;;2.60;1.40;;;;;;;31.54;28.15;99114.27;1688950;83;20998;-67
2022/06/19 11:57:00;;;;;;;1.30;1.10;;;;;;;31.49;28.68;99111.10;1684437;83;21434;-64
2022/06/19 11:59:45;;;;;;;1.05;1.00;;;;;;;31.48;28.86;99109.47;1689771;84;21028;-66
2022/06/19 12:02:34;;;;;;;2.05;1.35;;;;;;;31.44;29.24;99107.09;1683179;84;20955;-65
2022/06/19 12:05:09;;;;;;;2.95;1.40;;;;;;;31.43;28.96;99097.77;1682393;83;21498;-65
2022/06/19 12:07:37;;;;;;;;;;;;;;;31.33;29.35;99109.84;1680307;84;21611;-67
2022/06/19 12:10:15;;;;;;;1.72;1.27;;;;;;;31.23;29.48;99106.00;1682535;84;21092;-65
2022/06/19 12:12:55;;;;;;;3.83;1.20;;;;;;;31.20;29.26;99090.14;1682688;85;21509;-71
2022/06/19 12:15:31;;;;;;;3.52;1.12;;;;;;;31.15;29.81;99087.52;1682203;83;20992;-66